Time;durP1;ratioP1;P1;durP2;ratioP2;P2;SDS_P1;SDS_P2;PMS_P1;PMS_P2;Temp;Humidity;BMP_temperature;BMP_pressure;BME280_temperature;BME280_humidity;BME280_pressure;Samples;Min_cycle;Max_cycle;Signal;HPM_P1;HPM_P2
2023/05/03 00:00:18;;;;;;;;;;;7.40;99.90;;;;;;4927666;28;20005;-69
2023/05/03 00:02:44;;;;;;;;;;;7.40;99.90;;;;;;4952512;28;20297;-69
2023/05/03 00:05:11;;;;;;;;;;;7.40;99.90;;;;;;4947183;28;19918;-69
2023/05/03 00:07:37;;;;;;;;;;;7.40;99.90;;;;;;4948694;28;19910;-73
2023/05/03 00:10:03;;;;;;;;;;;7.40;99.90;;;;;;4946662;28;20365;-69
2023/05/03 00:12:29;;;;;;;;;;;7.40;99.90;;;;;;4947153;28;20413;-71
2023/05/03 00:14:54;;;;;;;;;;;7.40;99.90;;;;;;4949009;28;19918;-69
2023/05/03 00:17:20;;;;;;;;;;;7.40;99.90;;;;;;4946447;28;19965;-68
2023/05/03 00:19:46;;;;;;;;;;;7.40;99.90;;;;;;4949929;28;20008;-69
2023/05/03 00:22:12;;;;;;;;;;;7.40;99.90;;;;;;4953707;28;19950;-69
2023/05/03 00:24:37;;;;;;;;;;;7.40;99.90;;;;;;4950514;28;20408;-69
2023/05/03 00:27:03;;;;;;;;;;;7.40;99.90;;;;;;4946425;28;19914;-68
2023/05/03 00:29:29;;;;;;;;;;;7.30;99.90;;;;;;4947510;28;19910;-69
2023/05/03 00:31:54;;;;;;;;;;;7.30;99.90;;;;;;4947558;28;19925;-68
2023/05/03 00:34:20;;;;;;;;;;;7.30;99.90;;;;;;4950697;28;19933;-68
2023/05/03 00:36:45;;;;;;;;;;;7.30;99.90;;;;;;4951475;28;19918;-69
2023/05/03 00:39:13;;;;;;;;;;;7.30;99.90;;;;;;4948426;28;19918;-68
2023/05/03 00:41:39;;;;;;;;;;;7.30;99.90;;;;;;4945158;28;19910;-68
2023/05/03 00:44:07;;;;;;;;;;;7.30;99.90;;;;;;4945126;28;20264;-68
2023/05/03 00:46:33;;;;;;;;;;;7.30;99.90;;;;;;4947935;28;19957;-68
2023/05/03 00:48:58;;;;;;;;;;;7.30;99.90;;;;;;4945923;28;20001;-69
2023/05/03 00:51:26;;;;;;;;;;;7.30;99.90;;;;;;4948298;28;19915;-70
2023/05/03 00:53:52;;;;;;;;;;;7.30;99.90;;;;;;4948973;28;19937;-68
2023/05/03 00:56:24;;;;;;;;;;;7.30;99.90;;;;;;4951595;28;19918;-69
2023/05/03 00:58:50;;;;;;;;;;;7.20;99.90;;;;;;4951858;28;20001;-70
2023/05/03 01:01:16;;;;;;;;;;;7.20;99.90;;;;;;4951923;28;20001;-69
2023/05/03 01:03:42;;;;;;;;;;;7.20;99.90;;;;;;4949213;28;20309;-68
2023/05/03 01:06:20;;;;;;;;;;;7.10;99.90;;;;;;4953004;28;20005;-70
2023/05/03 01:08:50;;;;;;;;;;;7.10;99.90;;;;;;4930554;28;19914;-69
2023/05/03 01:11:21;;;;;;;;;;;7.10;99.90;;;;;;4965419;28;20025;-69
2023/05/03 01:13:50;;;;;;;;;;;7.10;99.90;;;;;;4952372;28;19992;-68
2023/05/03 01:16:18;;;;;;;;;;;7.00;99.90;;;;;;4949720;28;19968;-68
2023/05/03 01:18:47;;;;;;;;;;;7.00;99.90;;;;;;4952610;28;20387;-69
2023/05/03 01:21:15;;;;;;;;;;;6.90;99.90;;;;;;4951919;28;19964;-68
2023/05/03 01:23:41;;;;;;;;;;;6.90;99.90;;;;;;4964950;28;19917;-73
2023/05/03 01:26:19;;;;;;;;;;;6.90;99.90;;;;;;4953414;28;19922;-71
2023/05/03 01:28:45;;;;;;;;;;;6.90;99.90;;;;;;4954251;28;20438;-69
2023/05/03 01:31:11;;;;;;;;;;;6.90;99.90;;;;;;4963501;28;19950;-71
2023/05/03 01:33:45;;;;;;;;;;;6.90;99.90;;;;;;4950823;28;19906;-68
2023/05/03 01:36:15;;;;;;;;;;;6.90;99.90;;;;;;4948876;28;19919;-67
2023/05/03 01:38:41;;;;;;;;;;;6.80;99.90;;;;;;4949408;28;19945;-70
2023/05/03 01:41:09;;;;;;;;;;;6.90;99.90;;;;;;4950150;28;20397;-69
2023/05/03 01:43:35;;;;;;;;;;;6.90;99.90;;;;;;4949422;28;20402;-69
2023/05/03 01:46:01;;;;;;;;;;;6.90;99.90;;;;;;4947558;28;19969;-69
2023/05/03 01:48:26;;;;;;;;;;;6.90;99.90;;;;;;4949619;28;19914;-68
2023/05/03 01:50:52;;;;;;;;;;;6.90;99.90;;;;;;4951397;28;19907;-68
2023/05/03 01:53:18;;;;;;;;;;;6.90;99.90;;;;;;4951195;28;19929;-69
2023/05/03 01:55:43;;;;;;;;;;;6.90;99.90;;;;;;4944934;28;20378;-68
2023/05/03 01:58:09;;;;;;;;;;;6.90;99.90;;;;;;4955155;28;19914;-68
2023/05/03 02:00:35;;;;;;;;;;;6.90;99.90;;;;;;4950243;28;20310;-69
2023/05/03 02:03:00;;;;;;;;;;;6.90;99.90;;;;;;4950248;28;19957;-71
2023/05/03 02:05:26;;;;;;;;;;;7.00;99.90;;;;;;4947334;28;19929;-70
2023/05/03 02:07:51;;;;;;;;;;;7.00;99.90;;;;;;4950677;28;19950;-68
2023/05/03 02:10:17;;;;;;;;;;;7.00;99.90;;;;;;4952180;28;19914;-68
2023/05/03 02:12:43;;;;;;;;;;;7.10;99.90;;;;;;4951490;28;19914;-68
2023/05/03 02:15:10;;;;;;;;;;;7.10;99.90;;;;;;4951089;28;19961;-68
2023/05/03 02:17:36;;;;;;;;;;;7.10;99.90;;;;;;4949495;28;19923;-69
2023/05/03 02:20:04;;;;;;;;;;;7.20;99.90;;;;;;4947470;28;19971;-70
2023/05/03 02:22:30;;;;;;;;;;;7.10;99.90;;;;;;4950948;28;19972;-69
2023/05/03 02:24:56;;;;;;;;;;;7.20;99.90;;;;;;4949453;28;20378;-69
2023/05/03 02:27:21;;;;;;;;;;;7.20;99.90;;;;;;4948644;28;19965;-69
2023/05/03 02:29:47;;;;;;;;;;;7.20;99.90;;;;;;4948335;28;19968;-68
2023/05/03 02:32:12;;;;;;;;;;;7.20;99.90;;;;;;4952103;28;19921;-68
2023/05/03 02:34:38;;;;;;;;;;;7.30;99.90;;;;;;4949223;28;19918;-69
2023/05/03 02:37:04;;;;;;;;;;;7.30;99.90;;;;;;4948945;28;19922;-68
2023/05/03 02:39:30;;;;;;;;;;;7.30;99.90;;;;;;4945209;28;19915;-68
2023/05/03 02:41:55;;;;;;;;;;;7.30;99.90;;;;;;4946703;28;19957;-68
2023/05/03 02:44:21;;;;;;;;;;;7.30;99.90;;;;;;4950419;28;20005;-69
2023/05/03 02:46:47;;;;;;;;;;;7.30;99.90;;;;;;4945323;28;19940;-68
2023/05/03 02:49:12;;;;;;;;;;;7.30;99.90;;;;;;4948558;28;20369;-69
2023/05/03 02:51:38;;;;;;;;;;;7.30;99.90;;;;;;4947657;28;19928;-68
2023/05/03 02:54:03;;;;;;;;;;;7.30;99.90;;;;;;4946438;28;19915;-69
2023/05/03 02:56:29;;;;;;;;;;;7.30;99.90;;;;;;4951850;28;19959;-69
2023/05/03 02:58:54;;;;;;;;;;;7.30;99.90;;;;;;4950135;28;19914;-69
2023/05/03 03:01:20;;;;;;;;;;;7.30;99.90;;;;;;4949510;28;20069;-68
2023/05/03 03:03:46;;;;;;;;;;;7.30;99.90;;;;;;4945696;28;19918;-72
2023/05/03 03:06:12;;;;;;;;;;;7.30;99.90;;;;;;4959640;28;19914;-68
2023/05/03 03:08:37;;;;;;;;;;;7.30;99.90;;;;;;4944046;28;19911;-68
2023/05/03 03:11:04;;;;;;;;;;;7.30;99.90;;;;;;4946361;28;19914;-68
2023/05/03 03:13:29;;;;;;;;;;;7.30;99.90;;;;;;4947779;28;20306;-69
2023/05/03 03:15:55;;;;;;;;;;;7.30;99.90;;;;;;4947340;28;19919;-69
2023/05/03 03:18:21;;;;;;;;;;;7.30;99.90;;;;;;4948545;28;20349;-68
2023/05/03 03:20:46;;;;;;;;;;;7.30;99.90;;;;;;4947215;28;19941;-68
2023/05/03 03:23:12;;;;;;;;;;;7.30;99.90;;;;;;4946455;28;19921;-67
2023/05/03 03:25:37;;;;;;;;;;;7.30;99.90;;;;;;4948340;28;19945;-68
2023/05/03 03:28:03;;;;;;;;;;;7.30;99.90;;;;;;4945422;28;19914;-69
2023/05/03 03:30:30;;;;;;;;;;;7.30;99.90;;;;;;4953943;28;19961;-69
2023/05/03 03:32:55;;;;;;;;;;;7.20;99.90;;;;;;4951459;28;19910;-68
2023/05/03 03:35:21;;;;;;;;;;;7.30;99.90;;;;;;4950243;28;19914;-68
2023/05/03 03:37:47;;;;;;;;;;;7.30;99.90;;;;;;4948507;28;19984;-68
2023/05/03 03:40:12;;;;;;;;;;;7.30;99.90;;;;;;4946761;28;20269;-67
2023/05/03 03:42:38;;;;;;;;;;;7.30;99.90;;;;;;4944964;28;19962;-69
2023/05/03 03:45:04;;;;;;;;;;;7.30;99.90;;;;;;4947822;28;19926;-70
2023/05/03 03:47:29;;;;;;;;;;;7.30;99.90;;;;;;4948590;28;19910;-69
2023/05/03 03:49:55;;;;;;;;;;;7.40;99.90;;;;;;4949024;28;20416;-69
2023/05/03 03:52:20;;;;;;;;;;;7.30;99.90;;;;;;4952843;28;20473;-69
2023/05/03 03:54:46;;;;;;;;;;;7.30;99.90;;;;;;4954201;28;20061;-68
2023/05/03 03:57:11;;;;;;;;;;;7.40;99.90;;;;;;4950344;28;19925;-69
2023/05/03 03:59:37;;;;;;;;;;;7.40;99.90;;;;;;4948771;28;20393;-69
2023/05/03 04:02:02;;;;;;;;;;;7.30;99.90;;;;;;4946886;28;19914;-68
2023/05/03 04:04:30;;;;;;;;;;;7.30;99.90;;;;;;4946080;28;19915;-70
2023/05/03 04:06:55;;;;;;;;;;;7.30;99.90;;;;;;4949086;28;20336;-68
2023/05/03 04:09:21;;;;;;;;;;;7.30;99.90;;;;;;4948263;28;20008;-69
2023/05/03 04:11:47;;;;;;;;;;;7.20;99.90;;;;;;4947110;28;20392;-69
2023/05/03 04:14:12;;;;;;;;;;;7.20;99.90;;;;;;4946328;28;20493;-69
2023/05/03 04:16:38;;;;;;;;;;;7.20;99.90;;;;;;4946291;28;19918;-69
2023/05/03 04:19:03;;;;;;;;;;;7.30;99.90;;;;;;4948098;28;19914;-68
2023/05/03 04:21:30;;;;;;;;;;;7.30;99.90;;;;;;4949644;28;19910;-69
2023/05/03 04:23:56;;;;;;;;;;;7.30;99.90;;;;;;4944538;28;19914;-68
2023/05/03 04:26:23;;;;;;;;;;;7.30;99.90;;;;;;4947908;28;20393;-69
2023/05/03 04:28:48;;;;;;;;;;;7.40;99.90;;;;;;4951350;28;19965;-66
2023/05/03 04:31:15;;;;;;;;;;;7.40;99.90;;;;;;4947360;28;19918;-68
2023/05/03 04:33:40;;;;;;;;;;;7.50;99.90;;;;;;4953357;28;19917;-68
2023/05/03 04:36:08;;;;;;;;;;;7.50;99.90;;;;;;4946913;28;20529;-68
2023/05/03 04:38:34;;;;;;;;;;;7.50;99.90;;;;;;4954221;28;20030;-68
2023/05/03 04:40:59;;;;;;;;;;;7.50;99.90;;;;;;4950263;28;19978;-69
2023/05/03 04:43:25;;;;;;;;;;;7.50;99.90;;;;;;4966094;28;19954;-69
2023/05/03 04:45:51;;;;;;;;;;;7.50;99.90;;;;;;4950186;28;19997;-69
2023/05/03 04:48:17;;;;;;;;;;;7.50;99.90;;;;;;4951838;28;19914;-68
2023/05/03 04:50:43;;;;;;;;;;;7.60;99.90;;;;;;4950442;28;19920;-68
2023/05/03 04:53:09;;;;;;;;;;;7.60;99.90;;;;;;4953419;28;20445;-68
2023/05/03 04:55:35;;;;;;;;;;;7.60;99.90;;;;;;4949878;28;20396;-69
2023/05/03 04:58:01;;;;;;;;;;;7.70;99.90;;;;;;4952006;28;19917;-69
2023/05/03 05:00:26;;;;;;;;;;;7.70;99.90;;;;;;4948322;28;19914;-69
2023/05/03 05:02:52;;;;;;;;;;;7.70;99.90;;;;;;4951562;28;19918;-69
2023/05/03 05:05:17;;;;;;;;;;;7.70;99.90;;;;;;4951439;28;19930;-69
2023/05/03 05:07:43;;;;;;;;;;;7.80;99.90;;;;;;4950216;28;19921;-68
2023/05/03 05:10:09;;;;;;;;;;;7.80;99.90;;;;;;4948028;28;20358;-68
2023/05/03 05:12:34;;;;;;;;;;;7.80;99.90;;;;;;4945683;28;19919;-68
2023/05/03 05:15:00;;;;;;;;;;;7.70;99.90;;;;;;4943256;28;19918;-67
2023/05/03 05:17:26;;;;;;;;;;;7.70;99.90;;;;;;4948517;28;20330;-68
2023/05/03 05:19:52;;;;;;;;;;;9.50;99.90;;;;;;4948439;28;19910;-68
2023/05/03 05:22:18;;;;;;;;;;;8.90;99.90;;;;;;4949369;28;19932;-68
2023/05/03 05:24:44;;;;;;;;;;;8.60;99.90;;;;;;4949824;28;19914;-69
2023/05/03 05:27:10;;;;;;;;;;;8.40;99.90;;;;;;4947590;28;19972;-67
2023/05/03 05:29:35;;;;;;;;;;;8.20;99.90;;;;;;4953655;28;20413;-69
2023/05/03 05:32:02;;;;;;;;;;;8.20;99.90;;;;;;4950323;28;20421;-68
2023/05/03 05:34:28;;;;;;;;;;;8.20;99.90;;;;;;4951892;28;19911;-69
2023/05/03 05:36:54;;;;;;;;;;;8.20;99.90;;;;;;4949927;28;19925;-70
2023/05/03 05:39:22;;;;;;;;;;;8.20;99.90;;;;;;4951711;28;19914;-68
2023/05/03 05:41:47;;;;;;;;;;;8.20;99.90;;;;;;4951507;28;20022;-67
2023/05/03 05:44:13;;;;;;;;;;;8.20;99.90;;;;;;4949044;28;20004;-69
2023/05/03 05:46:39;;;;;;;;;;;8.30;99.90;;;;;;4944051;28;19914;-70
2023/05/03 05:49:05;;;;;;;;;;;8.30;99.90;;;;;;4945510;28;19959;-70
2023/05/03 05:51:31;;;;;;;;;;;8.40;99.90;;;;;;4948467;28;19925;-69
2023/05/03 05:53:57;;;;;;;;;;;8.40;99.90;;;;;;4948441;28;19925;-70
2023/05/03 05:56:23;;;;;;;;;;;8.40;99.90;;;;;;4951458;28;19918;-70
2023/05/03 05:58:48;;;;;;;;;;;8.50;99.90;;;;;;4946601;28;19919;-70
2023/05/03 06:01:14;;;;;;;;;;;8.40;99.90;;;;;;4944513;28;19911;-70
2023/05/03 06:03:40;;;;;;;;;;;8.40;99.90;;;;;;4960144;28;20005;-70
2023/05/03 06:06:07;;;;;;;;;;;8.50;99.90;;;;;;4957873;28;20446;-70
2023/05/03 06:08:33;;;;;;;;;;;8.50;99.90;;;;;;4950945;28;19914;-70
2023/05/03 06:10:58;;;;;;;;;;;8.40;99.90;;;;;;4945446;28;19915;-70
2023/05/03 06:13:24;;;;;;;;;;;8.50;99.90;;;;;;4940220;28;19969;-70
2023/05/03 06:15:51;;;;;;;;;;;8.60;99.90;;;;;;4963250;28;20399;-70
2023/05/03 06:18:17;;;;;;;;;;;8.60;99.90;;;;;;4950535;28;19965;-70
2023/05/03 06:20:42;;;;;;;;;;;8.70;99.90;;;;;;4953282;28;20461;-69
2023/05/03 06:23:08;;;;;;;;;;;8.80;99.90;;;;;;4941138;28;19925;-70
2023/05/03 06:25:35;;;;;;;;;;;8.80;99.90;;;;;;4950981;28;20462;-70
2023/05/03 06:28:00;;;;;;;;;;;8.90;99.90;;;;;;4949316;28;19961;-70
2023/05/03 06:30:27;;;;;;;;;;;9.00;99.90;;;;;;4949553;28;19958;-70
2023/05/03 06:32:52;;;;;;;;;;;9.00;99.90;;;;;;4946028;28;19945;-70
2023/05/03 06:35:20;;;;;;;;;;;9.10;99.90;;;;;;4948375;28;19961;-70
2023/05/03 06:37:46;;;;;;;;;;;9.10;99.90;;;;;;4945552;28;19937;-69
2023/05/03 06:40:12;;;;;;;;;;;9.10;99.90;;;;;;4952831;28;20429;-69
2023/05/03 06:42:37;;;;;;;;;;;9.20;99.90;;;;;;4948652;28;20381;-69
2023/05/03 06:45:03;;;;;;;;;;;9.30;99.90;;;;;;4947597;28;19918;-70
2023/05/03 06:47:29;;;;;;;;;;;9.30;99.90;;;;;;4949384;28;19933;-70
2023/05/03 06:49:54;;;;;;;;;;;9.40;99.90;;;;;;4949443;28;20005;-71
2023/05/03 06:52:20;;;;;;;;;;;9.40;99.90;;;;;;4951265;28;19913;-69
2023/05/03 06:54:45;;;;;;;;;;;9.50;99.90;;;;;;4953689;28;19915;-69
2023/05/03 06:57:11;;;;;;;;;;;9.50;99.90;;;;;;4950923;28;19921;-70
2023/05/03 06:59:37;;;;;;;;;;;9.60;99.90;;;;;;4964361;28;20339;-69
2023/05/03 07:02:02;;;;;;;;;;;9.70;99.90;;;;;;4949280;28;19914;-69
2023/05/03 07:04:28;;;;;;;;;;;9.70;99.90;;;;;;4949299;28;20350;-69
2023/05/03 07:06:54;;;;;;;;;;;9.60;99.90;;;;;;4952359;28;20186;-70
2023/05/03 07:09:19;;;;;;;;;;;9.60;99.90;;;;;;4954618;28;19946;-70
2023/05/03 07:11:52;;;;;;;;;;;10.00;99.90;;;;;;5106571;27;20395;-71
2023/05/03 07:14:18;;;;;;;;;;;10.20;99.90;;;;;;5086812;28;19919;-70
2023/05/03 07:16:44;;;;;;;;;;;10.00;99.90;;;;;;5066050;28;19968;-71
2023/05/03 07:19:09;;;;;;;;;;;9.90;99.90;;;;;;5080936;28;19916;-70
2023/05/03 07:21:35;;;;;;;;;;;9.80;99.90;;;;;;5087181;28;19912;-70
2023/05/03 07:24:01;;;;;;;;;;;9.80;99.90;;;;;;5085491;28;19923;-70
2023/05/03 07:26:26;;;;;;;;;;;9.70;99.90;;;;;;5087458;28;19908;-70
2023/05/03 07:28:52;;;;;;;;;;;9.70;99.90;;;;;;5087118;28;19912;-71
2023/05/03 07:31:18;;;;;;;;;;;9.70;99.30;;;;;;5086135;28;20008;-71
2023/05/03 07:33:44;;;;;;;;;;;9.60;99.00;;;;;;5085905;28;20038;-70
2023/05/03 07:36:10;;;;;;;;;;;9.70;99.00;;;;;;5084013;28;19919;-70
2023/05/03 07:38:36;;;;;;;;;;;9.60;99.50;;;;;;5086239;28;20375;-70
2023/05/03 07:41:02;;;;;;;;;;;9.70;99.70;;;;;;5085457;28;19959;-71
2023/05/03 07:43:28;;;;;;;;;;;9.80;98.60;;;;;;5086893;28;19913;-70
2023/05/03 07:45:54;;;;;;;;;;;9.70;98.10;;;;;;5085438;28;20368;-71
2023/05/03 07:48:20;;;;;;;;;;;9.70;97.60;;;;;;5066274;28;19912;-71
2023/05/03 07:50:45;;;;;;;;;;;9.80;98.00;;;;;;5084970;28;19912;-70
2023/05/03 07:53:11;;;;;;;;;;;9.80;97.80;;;;;;5085395;28;19913;-70
2023/05/03 07:55:37;;;;;;;;;;;9.80;97.80;;;;;;5086268;28;19912;-70
2023/05/03 07:58:03;;;;;;;;;;;9.80;97.30;;;;;;5118981;28;19909;-70
2023/05/03 08:00:29;;;;;;;;;;;9.70;97.50;;;;;;5083574;28;19924;-70
2023/05/03 08:02:54;;;;;;;;;;;9.70;97.40;;;;;;5086011;28;19923;-70
2023/05/03 08:05:20;;;;;;;;;;;9.70;97.30;;;;;;5084614;28;19916;-70
2023/05/03 08:07:46;;;;;;;;;;;9.80;97.10;;;;;;5084015;28;19965;-70
2023/05/03 08:10:11;;;;;;;;;;;9.80;97.10;;;;;;5086049;28;19922;-70
2023/05/03 08:12:37;;;;;;;;;;;9.70;97.10;;;;;;5084524;28;19921;-70
2023/05/03 08:15:06;;;;;;;;;;;9.80;97.50;;;;;;5080686;28;19920;-70
2023/05/03 08:17:32;;;;;;;;;;;9.90;96.70;;;;;;5083878;28;19920;-70
2023/05/03 08:19:57;;;;;;;;;;;10.10;96.40;;;;;;5085199;28;19916;-70
2023/05/03 08:22:25;;;;;;;;;;;10.20;96.20;;;;;;5077251;28;20379;-70
2023/05/03 08:24:52;;;;;;;;;;;10.20;96.60;;;;;;5073556;28;20295;-70
2023/05/03 08:27:18;;;;;;;;;;;10.10;95.90;;;;;;5070793;28;19908;-70
2023/05/03 08:29:43;;;;;;;;;;;10.10;96.40;;;;;;5071057;28;20007;-70
2023/05/03 08:32:09;;;;;;;;;;;10.20;96.00;;;;;;5069824;28;20286;-70
2023/05/03 08:34:35;;;;;;;;;;;10.20;96.00;;;;;;5072094;28;19920;-69
2023/05/03 08:37:01;;;;;;;;;;;10.20;96.00;;;;;;5072350;28;19984;-70
2023/05/03 08:39:26;;;;;;;;;;;10.10;96.00;;;;;;5072402;28;19912;-70
2023/05/03 08:41:52;;;;;;;;;;;10.20;96.10;;;;;;5086405;28;19919;-69
2023/05/03 08:44:22;;;;;;;;;;;10.20;96.40;;;;;;5069983;28;19919;-69
2023/05/03 08:46:48;;;;;;;;;;;10.40;96.30;;;;;;5069806;28;20518;-69
2023/05/03 08:49:14;;;;;;;;;;;10.40;95.90;;;;;;5065472;28;19912;-69
2023/05/03 08:51:46;;;;;;;;;;;10.40;96.10;;;;;;5051832;28;20346;-69
2023/05/03 08:54:12;;;;;;;;;;;10.30;95.90;;;;;;5070380;28;19922;-70
2023/05/03 08:56:41;;;;;;;;;;;10.30;96.40;;;;;;5070989;28;19919;-69
2023/05/03 08:59:08;;;;;;;;;;;10.30;96.20;;;;;;5103862;28;19912;-69
2023/05/03 09:01:40;;;;;;;;;;;10.30;96.60;;;;;;5100619;28;19920;-70
2023/05/03 09:04:06;;;;;;;;;;;10.50;96.60;;;;;;5069745;28;19913;-69
2023/05/03 09:06:32;;;;;;;;;;;10.60;96.20;;;;;;5071164;28;19916;-70
2023/05/03 09:08:58;;;;;;;;;;;10.70;96.40;;;;;;5070731;28;20037;-70
2023/05/03 09:11:25;;;;;;;;;;;10.70;95.70;;;;;;5052346;28;19920;-70
2023/05/03 09:13:51;;;;;;;;;;;10.80;95.30;;;;;;5067905;28;19969;-71
2023/05/03 09:16:26;;;;;;;;;;;10.80;94.50;;;;;;5069632;28;19978;-70
2023/05/03 09:18:56;;;;;;;;;;;10.80;93.80;;;;;;5070384;28;19909;-70
2023/05/03 09:21:21;;;;;;;;;;;10.80;93.70;;;;;;5101425;28;19919;-70
2023/05/03 09:23:47;;;;;;;;;;;10.80;93.30;;;;;;5069926;28;20371;-70
2023/05/03 09:26:26;;;;;;;;;;;11.00;93.00;;;;;;5067637;28;19924;-70
2023/05/03 09:28:51;;;;;;;;;;;11.20;92.60;;;;;;5069293;28;20291;-70
2023/05/03 09:31:17;;;;;;;;;;;11.30;92.60;;;;;;5077978;28;19917;-70
2023/05/03 09:33:43;;;;;;;;;;;11.50;91.10;;;;;;5069737;28;19924;-70
2023/05/03 09:36:09;;;;;;;;;;;11.50;90.70;;;;;;5070074;28;19912;-71
2023/05/03 09:38:38;;;;;;;;;;;11.60;90.90;;;;;;5069996;28;19916;-70
2023/05/03 09:41:07;;;;;;;;;;;11.90;90.40;;;;;;5071146;28;19923;-70
2023/05/03 09:43:34;;;;;;;;;;;11.90;90.50;;;;;;5070333;28;20387;-70
2023/05/03 09:46:10;;;;;;;;;;;11.70;90.00;;;;;;5069929;28;20082;-71
2023/05/03 09:48:36;;;;;;;;;;;11.70;90.40;;;;;;5068155;28;19913;-70
2023/05/03 09:51:04;;;;;;;;;;;11.80;89.80;;;;;;5064936;28;19927;-71
2023/05/03 09:53:30;;;;;;;;;;;11.80;88.00;;;;;;5068857;28;19916;-70
2023/05/03 09:55:56;;;;;;;;;;;11.80;88.70;;;;;;5069284;28;19931;-71
2023/05/03 09:58:23;;;;;;;;;;;11.70;87.50;;;;;;5069130;28;20451;-70
2023/05/03 10:00:50;;;;;;;;;;;11.60;88.20;;;;;;5069250;28;19927;-71
2023/05/03 10:03:35;;;;;;;;;;;11.80;87.40;;;;;;5070904;28;19917;-70
2023/05/03 10:06:02;;;;;;;;;;;11.90;86.50;;;;;;5069963;28;19909;-71
2023/05/03 10:08:31;;;;;;;;;;;11.80;85.10;;;;;;5069274;28;19913;-71
2023/05/03 10:10:57;;;;;;;;;;;11.60;85.40;;;;;;5057114;28;19936;-71
2023/05/03 10:13:23;;;;;;;;;;;11.50;86.00;;;;;;5029540;28;20396;-71
2023/05/03 10:15:54;;;;;;;;;;;11.60;87.20;;;;;;5048642;28;19959;-71
2023/05/03 10:18:22;;;;;;;;;;;11.70;85.80;;;;;;5052528;28;19913;-70
2023/05/03 10:20:51;;;;;;;;;;;11.90;86.20;;;;;;5051112;28;19913;-71
2023/05/03 10:23:16;;;;;;;;;;;12.00;84.50;;;;;;5049472;28;20247;-72
2023/05/03 10:26:01;;;;;;;;;;;12.00;85.50;;;;;;5046289;28;20039;-69
2023/05/03 10:28:26;;;;;;;;;;;12.20;85.70;;;;;;5032894;28;19963;-71
2023/05/03 10:30:52;;;;;;;;;;;12.30;83.90;;;;;;5044016;28;19917;-70
2023/05/03 10:33:17;;;;;;;;;;;12.30;83.70;;;;;;5050054;28;19917;-70
2023/05/03 10:35:51;;;;;;;;;;;12.30;82.30;;;;;;5032033;28;19963;-70
2023/05/03 10:38:25;;;;;;;;;;;12.80;84.70;;;;;;5031452;28;19912;-70
2023/05/03 10:40:51;;;;;;;;;;;12.70;83.20;;;;;;5031507;28;20368;-70
2023/05/03 10:43:32;;;;;;;;;;;12.50;82.70;;;;;;5031372;28;19935;-68
2023/05/03 10:45:58;;;;;;;;;;;12.60;82.50;;;;;;5012994;28;19912;-70
2023/05/03 10:48:24;;;;;;;;;;;12.50;80.40;;;;;;5029601;28;19964;-69
2023/05/03 10:50:50;;;;;;;;;;;12.50;82.20;;;;;;5048580;28;19968;-70
2023/05/03 10:53:36;;;;;;;;;;;12.70;81.80;;;;;;5031494;28;20407;-70
2023/05/03 10:56:07;;;;;;;;;;;12.80;81.80;;;;;;5023550;28;19986;-70
2023/05/03 10:58:37;;;;;;;;;;;12.90;81.00;;;;;;5014426;28;19944;-70
2023/05/03 11:01:04;;;;;;;;;;;12.90;81.70;;;;;;5048648;28;19924;-70
2023/05/03 11:03:36;;;;;;;;;;;12.70;81.20;;;;;;5031866;28;19916;-70
2023/05/03 11:06:02;;;;;;;;;;;12.80;80.80;;;;;;5032081;28;19912;-70
2023/05/03 11:08:36;;;;;;;;;;;12.80;80.20;;;;;;5049883;28;19966;-71
2023/05/03 11:11:04;;;;;;;;;;;13.10;81.80;;;;;;5061697;28;19916;-71
2023/05/03 11:13:29;;;;;;;;;;;13.90;80.50;;;;;;5068507;28;20299;-71
2023/05/03 11:15:55;;;;;;;;;;;15.10;76.50;;;;;;5064265;28;19999;-71
2023/05/03 11:18:21;;;;;;;;;;;16.70;70.60;;;;;;5067948;28;19908;-71
2023/05/03 11:20:47;;;;;;;;;;;17.40;69.80;;;;;;5068131;28;19912;-71
2023/05/03 11:23:13;;;;;;;;;;;18.10;63.10;;;;;;5068696;28;19916;-71
2023/05/03 11:25:38;;;;;;;;;;;17.10;64.20;;;;;;5050339;28;20342;-71
2023/05/03 11:28:04;;;;;;;;;;;16.50;62.90;;;;;;5069029;28;20024;-71
2023/05/03 11:30:31;;;;;;;;;;;15.50;65.60;;;;;;5069741;28;19924;-72
2023/05/03 11:33:00;;;;;;;;;;;15.10;66.20;;;;;;5069265;28;19950;-70
2023/05/03 11:35:27;;;;;;;;;;;15.10;66.80;;;;;;5068381;28;19982;-70
2023/05/03 11:37:53;;;;;;;;;;;16.60;65.50;;;;;;5067845;28;20384;-70
2023/05/03 11:40:18;;;;;;;;;;;18.00;61.50;;;;;;5069454;28;19944;-69
2023/05/03 11:42:52;;;;;;;;;;;18.70;55.50;;;;;;5069564;28;20786;-70
2023/05/03 11:45:24;;;;;;;;;;;19.40;55.60;;;;;;5067810;28;19952;-70
2023/05/03 11:47:51;;;;;;;;;;;20.80;52.60;;;;;;5067128;28;19916;-70
2023/05/03 11:50:17;;;;;;;;;;;20.40;51.20;;;;;;5067324;28;20339;-70
2023/05/03 11:52:43;;;;;;;;;;;19.50;51.90;;;;;;5067619;28;20172;-70
2023/05/03 11:55:10;;;;;;;;;;;18.70;51.40;;;;;;5069835;28;19909;-70
2023/05/03 11:57:37;;;;;;;;;;;18.60;54.20;;;;;;5069543;28;19946;-71
2023/05/03 12:00:13;;;;;;;;;;;19.10;52.70;;;;;;5053238;28;19913;-70
2023/05/03 12:02:40;;;;;;;;;;;19.60;51.20;;;;;;5073382;28;19913;-71
2023/05/03 12:05:06;;;;;;;;;;;19.10;51.70;;;;;;5073238;28;19942;-71
2023/05/03 12:07:32;;;;;;;;;;;18.70;58.50;;;;;;5069286;28;19992;-71
2023/05/03 12:09:58;;;;;;;;;;;18.70;56.20;;;;;;5072605;28;20011;-71
2023/05/03 12:12:23;;;;;;;;;;;18.30;55.20;;;;;;5073304;28;19909;-71
2023/05/03 12:14:57;;;;;;;;;;;17.80;55.70;;;;;;5069888;28;20363;-71
2023/05/03 12:17:33;;;;;;;;;;;17.40;56.60;;;;;;5071657;28;19924;-70
2023/05/03 12:20:18;;;;;;;;;;;17.10;56.80;;;;;;5071057;28;19944;-70
2023/05/03 12:22:46;;;;;;;;;;;16.60;58.30;;;;;;5101543;28;19958;-71
2023/05/03 12:25:12;;;;;;;;;;;16.80;56.80;;;;;;5068397;28;19954;-71
2023/05/03 12:27:38;;;;;;;;;;;16.90;55.50;;;;;;5071510;28;19948;-70
2023/05/03 12:30:04;;;;;;;;;;;17.30;55.10;;;;;;5070975;28;20486;-71
2023/05/03 12:32:29;;;;;;;;;;;17.10;56.00;;;;;;5070764;28;19913;-70
2023/05/03 12:34:55;;;;;;;;;;;17.70;55.60;;;;;;5071957;28;19920;-70
2023/05/03 12:37:21;;;;;;;;;;;18.60;54.20;;;;;;5070806;28;19993;-70
2023/05/03 12:39:46;;;;;;;;;;;19.10;53.80;;;;;;5067593;28;20442;-70
2023/05/03 12:42:12;;;;;;;;;;;19.70;52.00;;;;;;5072493;28;19916;-71
2023/05/03 12:44:38;;;;;;;;;;;20.30;52.00;;;;;;5072332;28;20419;-70
2023/05/03 12:47:05;;;;;;;;;;;20.90;51.10;;;;;;5071878;28;20007;-69
2023/05/03 12:49:30;;;;;;;;;;;21.40;50.00;;;;;;5070311;28;19931;-70
2023/05/03 12:51:59;;;;;;;;;;;21.60;49.50;;;;;;5069243;28;20391;-73
2023/05/03 12:54:25;;;;;;;;;;;22.30;47.80;;;;;;5068599;28;20376;-71
2023/05/03 12:56:50;;;;;;;;;;;23.00;46.10;;;;;;5069643;28;19963;-70
2023/05/03 12:59:16;;;;;;;;;;;22.40;46.00;;;;;;5071630;28;20003;-76
2023/05/03 13:01:41;;;;;;;;;;;21.10;48.30;;;;;;5066537;28;20292;-71
2023/05/03 13:04:08;;;;;;;;;;;20.50;49.10;;;;;;5070892;28;19909;-73
2023/05/03 13:06:35;;;;;;;;;;;20.40;50.00;;;;;;5071872;28;19909;-71
2023/05/03 13:09:01;;;;;;;;;;;21.30;48.70;;;;;;5072535;28;19934;-71
2023/05/03 13:11:28;;;;;;;;;;;22.10;46.40;;;;;;5068162;28;19916;-72
2023/05/03 13:13:53;;;;;;;;;;;22.50;45.80;;;;;;5071810;28;20317;-72
2023/05/03 13:16:19;;;;;;;;;;;22.70;45.10;;;;;;5071535;28;19916;-74
2023/05/03 13:18:45;;;;;;;;;;;23.60;44.10;;;;;;5066789;28;19955;-75
2023/05/03 13:21:11;;;;;;;;;;;23.60;43.90;;;;;;5050914;28;20058;-73
2023/05/03 13:23:36;;;;;;;;;;;23.50;43.40;;;;;;5070948;28;20265;-75
2023/05/03 13:26:02;;;;;;;;;;;23.60;42.90;;;;;;5070595;28;19920;-75
2023/05/03 13:28:28;;;;;;;;;;;24.80;41.30;;;;;;5069237;28;19951;-73
2023/05/03 13:30:53;;;;;;;;;;;24.40;41.80;;;;;;5072590;28;19959;-73
2023/05/03 13:33:19;;;;;;;;;;;25.00;40.70;;;;;;5068658;28;19912;-73
2023/05/03 13:35:44;;;;;;;;;;;24.70;41.60;;;;;;5068788;28;20407;-72
2023/05/03 13:38:10;;;;;;;;;;;24.90;40.60;;;;;;5068328;28;19912;-75
2023/05/03 13:40:36;;;;;;;;;;;25.80;39.90;;;;;;5069257;28;19913;-75
2023/05/03 13:43:01;;;;;;;;;;;24.60;41.20;;;;;;5053018;28;19918;-75
2023/05/03 13:45:28;;;;;;;;;;;24.40;40.40;;;;;;5068790;28;20003;-72
2023/05/03 13:47:54;;;;;;;;;;;23.90;40.90;;;;;;5070228;28;20322;-73
2023/05/03 13:50:20;;;;;;;;;;;25.30;39.10;;;;;;5068431;28;19917;-73
2023/05/03 13:52:45;;;;;;;;;;;25.50;38.60;;;;;;5070865;28;20041;-73
2023/05/03 13:55:11;;;;;;;;;;;25.80;38.20;;;;;;5085479;28;19916;-74
2023/05/03 13:57:36;;;;;;;;;;;25.50;38.60;;;;;;5051818;28;19920;-73
2023/05/03 14:00:04;;;;;;;;;;;25.40;38.30;;;;;;5070463;28;19948;-74
2023/05/03 14:02:30;;;;;;;;;;;23.80;40.30;;;;;;5102428;28;19966;-76
2023/05/03 14:04:55;;;;;;;;;;;22.50;42.20;;;;;;5084809;28;20431;-73
2023/05/03 14:07:21;;;;;;;;;;;21.50;44.40;;;;;;5068494;28;20408;-74
2023/05/03 14:09:47;;;;;;;;;;;20.60;46.10;;;;;;5070610;28;20299;-74
2023/05/03 14:12:12;;;;;;;;;;;19.20;48.90;;;;;;5068274;28;20326;-74
2023/05/03 14:14:38;;;;;;;;;;;18.30;49.90;;;;;;5067903;28;19913;-74
2023/05/03 14:17:04;;;;;;;;;;;17.40;52.00;;;;;;5069799;28;20342;-73
2023/05/03 14:19:33;;;;;;;;;;;16.90;53.70;;;;;;5067670;28;19916;-72